sensor_id;sensor_type;location;lat;lon;timestamp;P1;durP1;ratioP1;P2;durP2;ratioP2
76023;SDS011;64719;52.124;6.226;2023-03-14T09:06:05;3.13;;;0.60;;
76023;SDS011;64719;52.124;6.226;2023-03-14T09:08:33;2.72;;;0.70;;
76023;SDS011;64719;52.124;6.226;2023-03-14T09:10:59;2.05;;;0.50;;
76023;SDS011;64719;52.124;6.226;2023-03-14T09:13:26;1.70;;;0.52;;
76023;SDS011;64719;52.124;6.226;2023-03-14T09:15:53;1.67;;;0.60;;
76023;SDS011;64719;52.124;6.226;2023-03-14T09:18:20;1.42;;;0.60;;
76023;SDS011;64719;52.124;6.226;2023-03-14T09:20:47;1.98;;;0.70;;
76023;SDS011;64719;52.124;6.226;2023-03-14T09:23:15;2.47;;;0.90;;
76023;SDS011;64719;52.124;6.226;2023-03-14T09:25:42;1.98;;;0.50;;
76023;SDS011;64719;52.124;6.226;2023-03-14T09:28:08;1.48;;;0.55;;
76023;SDS011;64719;52.124;6.226;2023-03-14T09:30:35;2.97;;;0.50;;
76023;SDS011;64719;52.124;6.226;2023-03-14T09:33:01;4.55;;;0.60;;
76023;SDS011;64719;52.124;6.226;2023-03-14T09:35:28;1.52;;;0.50;;
76023;SDS011;64719;52.124;6.226;2023-03-14T09:37:55;2.95;;;0.65;;
76023;SDS011;64719;52.124;6.226;2023-03-14T09:40:23;2.25;;;0.50;;
76023;SDS011;64719;52.124;6.226;2023-03-14T09:42:50;1.58;;;0.40;;
76023;SDS011;64719;52.124;6.226;2023-03-14T09:45:21;1.92;;;0.60;;
76023;SDS011;64719;52.124;6.226;2023-03-14T09:47:51;4.65;;;0.90;;
76023;SDS011;64719;52.124;6.226;2023-03-14T09:50:19;2.30;;;0.60;;
76023;SDS011;64719;52.124;6.226;2023-03-14T09:52:47;3.35;;;0.60;;
76023;SDS011;64719;52.124;6.226;2023-03-14T09:55:18;1.40;;;0.50;;
76023;SDS011;64719;52.124;6.226;2023-03-14T09:57:49;4.35;;;0.98;;
76023;SDS011;64719;52.124;6.226;2023-03-14T10:00:21;3.75;;;0.70;;
76023;SDS011;64719;52.124;6.226;2023-03-14T10:02:50;4.35;;;1.10;;
76023;SDS011;64719;52.124;6.226;2023-03-14T10:05:21;3.75;;;1.20;;
76023;SDS011;64719;52.124;6.226;2023-03-14T10:07:50;4.50;;;0.90;;
76023;SDS011;64719;52.124;6.226;2023-03-14T10:10:17;4.57;;;0.70;;
76023;SDS011;64719;52.124;6.226;2023-03-14T10:12:45;4.93;;;0.70;;
76023;SDS011;64719;52.124;6.226;2023-03-14T10:15:14;3.83;;;1.02;;
76023;SDS011;64719;52.124;6.226;2023-03-14T10:17:49;3.33;;;1.00;;
76023;SDS011;64719;52.124;6.226;2023-03-14T10:20:36;5.38;;;1.00;;
76023;SDS011;64719;52.124;6.226;2023-03-14T10:23:04;2.38;;;0.95;;
76023;SDS011;64719;52.124;6.226;2023-03-14T10:25:34;4.88;;;0.90;;
76023;SDS011;64719;52.124;6.226;2023-03-14T10:28:02;5.03;;;1.27;;
76023;SDS011;64719;52.124;6.226;2023-03-14T10:33:09;10.13;;;1.85;;
76023;SDS011;64719;52.124;6.226;2023-03-14T10:38:03;6.72;;;1.48;;
76023;SDS011;64719;52.124;6.226;2023-03-14T10:40:31;7.60;;;1.50;;
76023;SDS011;64719;52.124;6.226;2023-03-14T10:42:59;8.90;;;1.30;;
76023;SDS011;64719;52.124;6.226;2023-03-14T10:45:35;8.77;;;1.30;;
76023;SDS011;64719;52.124;6.226;2023-03-14T10:48:16;9.85;;;1.73;;
76023;SDS011;64719;52.124;6.226;2023-03-14T10:50:50;8.18;;;1.45;;
76023;SDS011;64719;52.124;6.226;2023-03-14T10:55:47;9.45;;;1.70;;
76023;SDS011;64719;52.124;6.226;2023-03-14T10:58:18;10.88;;;1.92;;
76023;SDS011;64719;52.124;6.226;2023-03-14T11:00:48;12.27;;;2.25;;
76023;SDS011;64719;52.124;6.226;2023-03-14T11:03:19;11.73;;;1.90;;
76023;SDS011;64719;52.124;6.226;2023-03-14T11:05:49;11.00;;;1.80;;
76023;SDS011;64719;52.124;6.226;2023-03-14T11:10:51;8.23;;;1.55;;
76023;SDS011;64719;52.124;6.226;2023-03-14T11:13:22;8.50;;;1.98;;
76023;SDS011;64719;52.124;6.226;2023-03-14T11:15:56;12.00;;;1.90;;
76023;SDS011;64719;52.124;6.226;2023-03-14T11:18:36;12.93;;;1.80;;
76023;SDS011;64719;52.124;6.226;2023-03-14T11:21:16;7.78;;;1.63;;
76023;SDS011;64719;52.124;6.226;2023-03-14T11:23:50;10.77;;;2.22;;
76023;SDS011;64719;52.124;6.226;2023-03-14T11:26:28;8.05;;;2.10;;
76023;SDS011;64719;52.124;6.226;2023-03-14T11:29:02;10.77;;;1.85;;
76023;SDS011;64719;52.124;6.226;2023-03-14T11:31:43;14.57;;;2.15;;
76023;SDS011;64719;52.124;6.226;2023-03-14T11:34:12;13.63;;;2.13;;
76023;SDS011;64719;52.124;6.226;2023-03-14T11:36:44;10.90;;;2.08;;
76023;SDS011;64719;52.124;6.226;2023-03-14T11:39:18;18.05;;;2.10;;
76023;SDS011;64719;52.124;6.226;2023-03-14T11:41:46;11.23;;;2.05;;
76023;SDS011;64719;52.124;6.226;2023-03-14T11:44:15;10.35;;;2.47;;
76023;SDS011;64719;52.124;6.226;2023-03-14T11:46:46;15.55;;;2.72;;
76023;SDS011;64719;52.124;6.226;2023-03-14T11:49:19;10.55;;;2.15;;
76023;SDS011;64719;52.124;6.226;2023-03-14T11:51:55;14.25;;;2.40;;
76023;SDS011;64719;52.124;6.226;2023-03-14T11:54:25;10.82;;;2.20;;
76023;SDS011;64719;52.124;6.226;2023-03-14T11:57:01;9.95;;;1.92;;
76023;SDS011;64719;52.124;6.226;2023-03-14T11:59:31;9.25;;;2.55;;
76023;SDS011;64719;52.124;6.226;2023-03-14T12:02:02;11.73;;;2.35;;
76023;SDS011;64719;52.124;6.226;2023-03-14T12:04:37;8.68;;;2.22;;
76023;SDS011;64719;52.124;6.226;2023-03-14T12:07:17;9.93;;;2.30;;
76023;SDS011;64719;52.124;6.226;2023-03-14T12:09:46;10.60;;;2.33;;
76023;SDS011;64719;52.124;6.226;2023-03-14T12:12:16;8.20;;;1.90;;
76023;SDS011;64719;52.124;6.226;2023-03-14T12:14:47;11.38;;;2.28;;
76023;SDS011;64719;52.124;6.226;2023-03-14T12:17:22;7.10;;;1.90;;
76023;SDS011;64719;52.124;6.226;2023-03-14T12:20:00;8.85;;;1.60;;
76023;SDS011;64719;52.124;6.226;2023-03-14T12:22:32;8.95;;;2.00;;
76023;SDS011;64719;52.124;6.226;2023-03-14T12:25:03;8.65;;;1.75;;
76023;SDS011;64719;52.124;6.226;2023-03-14T12:27:46;11.50;;;2.08;;
76023;SDS011;64719;52.124;6.226;2023-03-14T12:30:25;12.30;;;2.42;;
76023;SDS011;64719;52.124;6.226;2023-03-14T12:36:03;7.43;;;1.63;;
76023;SDS011;64719;52.124;6.226;2023-03-14T12:38:46;6.68;;;1.40;;
76023;SDS011;64719;52.124;6.226;2023-03-14T12:41:23;8.05;;;1.83;;
76023;SDS011;64719;52.124;6.226;2023-03-14T12:43:54;6.43;;;1.55;;
76023;SDS011;64719;52.124;6.226;2023-03-14T12:46:22;7.40;;;1.63;;
76023;SDS011;64719;52.124;6.226;2023-03-14T12:48:54;6.57;;;1.52;;
76023;SDS011;64719;52.124;6.226;2023-03-14T12:51:28;5.63;;;1.13;;
76023;SDS011;64719;52.124;6.226;2023-03-14T12:54:09;6.25;;;1.73;;
76023;SDS011;64719;52.124;6.226;2023-03-14T12:56:47;8.93;;;1.80;;
76023;SDS011;64719;52.124;6.226;2023-03-14T13:01:58;5.63;;;1.70;;
76023;SDS011;64719;52.124;6.226;2023-03-14T13:04:29;6.25;;;1.70;;
76023;SDS011;64719;52.124;6.226;2023-03-14T13:07:01;6.07;;;1.25;;
76023;SDS011;64719;52.124;6.226;2023-03-14T13:12:27;11.05;;;2.00;;
76023;SDS011;64719;52.124;6.226;2023-03-14T13:14:58;5.78;;;1.77;;
76023;SDS011;64719;52.124;6.226;2023-03-14T13:17:29;5.57;;;1.67;;
76023;SDS011;64719;52.124;6.226;2023-03-14T13:20:00;6.63;;;1.85;;
76023;SDS011;64719;52.124;6.226;2023-03-14T13:22:33;7.03;;;1.52;;
76023;SDS011;64719;52.124;6.226;2023-03-14T13:25:02;7.00;;;1.40;;
76023;SDS011;64719;52.124;6.226;2023-03-14T13:27:31;4.25;;;1.30;;
76023;SDS011;64719;52.124;6.226;2023-03-14T13:30:04;4.50;;;1.38;;
76023;SDS011;64719;52.124;6.226;2023-03-14T13:32:47;6.15;;;1.42;;
76023;SDS011;64719;52.124;6.226;2023-03-14T13:35:15;6.65;;;1.17;;
76023;SDS011;64719;52.124;6.226;2023-03-14T13:37:44;8.18;;;1.40;;
76023;SDS011;64719;52.124;6.226;2023-03-14T13:42:45;4.00;;;1.13;;
76023;SDS011;64719;52.124;6.226;2023-03-14T13:45:12;6.07;;;1.13;;
76023;SDS011;64719;52.124;6.226;2023-03-14T13:47:40;3.30;;;0.93;;
76023;SDS011;64719;52.124;6.226;2023-03-14T13:52:39;4.78;;;1.10;;
76023;SDS011;64719;52.124;6.226;2023-03-14T13:55:14;5.75;;;1.38;;
76023;SDS011;64719;52.124;6.226;2023-03-14T13:57:43;11.43;;;1.52;;
76023;SDS011;64719;52.124;6.226;2023-03-14T14:00:17;3.47;;;0.93;;
76023;SDS011;64719;52.124;6.226;2023-03-14T14:05:12;5.22;;;0.95;;
76023;SDS011;64719;52.124;6.226;2023-03-14T14:07:38;4.20;;;0.90;;
76023;SDS011;64719;52.124;6.226;2023-03-14T14:10:06;4.43;;;1.20;;
76023;SDS011;64719;52.124;6.226;2023-03-14T14:12:38;5.32;;;1.10;;
76023;SDS011;64719;52.124;6.226;2023-03-14T14:15:11;5.28;;;1.20;;
76023;SDS011;64719;52.124;6.226;2023-03-14T14:17:41;6.07;;;1.20;;
76023;SDS011;64719;52.124;6.226;2023-03-14T14:20:12;3.20;;;0.90;;
76023;SDS011;64719;52.124;6.226;2023-03-14T14:22:47;5.35;;;1.00;;
76023;SDS011;64719;52.124;6.226;2023-03-14T14:25:15;3.38;;;1.10;;
76023;SDS011;64719;52.124;6.226;2023-03-14T14:27:46;5.10;;;1.35;;
76023;SDS011;64719;52.124;6.226;2023-03-14T14:33:16;4.90;;;1.20;;
76023;SDS011;64719;52.124;6.226;2023-03-14T14:35:49;5.65;;;1.05;;
76023;SDS011;64719;52.124;6.226;2023-03-14T14:38:17;4.47;;;1.00;;
76023;SDS011;64719;52.124;6.226;2023-03-14T14:40:46;1.67;;;0.73;;
76023;SDS011;64719;52.124;6.226;2023-03-14T14:43:17;3.22;;;0.75;;
76023;SDS011;64719;52.124;6.226;2023-03-14T14:45:47;3.45;;;1.00;;
76023;SDS011;64719;52.124;6.226;2023-03-14T14:48:18;6.70;;;1.17;;
76023;SDS011;64719;52.124;6.226;2023-03-14T14:50:50;4.63;;;1.40;;
76023;SDS011;64719;52.124;6.226;2023-03-14T14:53:23;5.53;;;1.08;;
76023;SDS011;64719;52.124;6.226;2023-03-14T14:55:53;7.50;;;1.30;;
76023;SDS011;64719;52.124;6.226;2023-03-14T14:58:24;3.92;;;0.82;;
76023;SDS011;64719;52.124;6.226;2023-03-14T15:00:53;3.78;;;0.98;;
76023;SDS011;64719;52.124;6.226;2023-03-14T15:03:22;4.22;;;1.00;;
76023;SDS011;64719;52.124;6.226;2023-03-14T15:05:52;4.63;;;0.98;;
76023;SDS011;64719;52.124;6.226;2023-03-14T15:10:46;2.67;;;1.02;;
76023;SDS011;64719;52.124;6.226;2023-03-14T15:13:13;6.50;;;1.35;;
76023;SDS011;64719;52.124;6.226;2023-03-14T15:15:41;6.00;;;0.93;;
76023;SDS011;64719;52.124;6.226;2023-03-14T15:18:10;3.17;;;0.77;;
76023;SDS011;64719;52.124;6.226;2023-03-14T15:20:40;5.05;;;1.50;;
76023;SDS011;64719;52.124;6.226;2023-03-14T15:23:10;4.55;;;0.95;;
76023;SDS011;64719;52.124;6.226;2023-03-14T15:25:37;3.65;;;1.00;;
76023;SDS011;64719;52.124;6.226;2023-03-14T15:28:08;5.93;;;1.23;;
76023;SDS011;64719;52.124;6.226;2023-03-14T15:30:41;4.63;;;0.80;;
76023;SDS011;64719;52.124;6.226;2023-03-14T15:33:08;7.10;;;1.23;;
76023;SDS011;64719;52.124;6.226;2023-03-14T15:35:35;3.45;;;0.90;;
76023;SDS011;64719;52.124;6.226;2023-03-14T15:38:03;6.53;;;1.02;;
76023;SDS011;64719;52.124;6.226;2023-03-14T15:40:30;3.38;;;0.80;;
76023;SDS011;64719;52.124;6.226;2023-03-14T15:42:56;3.40;;;0.95;;
76023;SDS011;64719;52.124;6.226;2023-03-14T15:45:23;4.13;;;0.90;;
76023;SDS011;64719;52.124;6.226;2023-03-14T15:47:51;5.13;;;1.08;;
76023;SDS011;64719;52.124;6.226;2023-03-14T15:50:17;4.65;;;1.00;;
76023;SDS011;64719;52.124;6.226;2023-03-14T15:52:44;4.75;;;1.00;;
76023;SDS011;64719;52.124;6.226;2023-03-14T15:55:11;4.60;;;1.33;;
76023;SDS011;64719;52.124;6.226;2023-03-14T15:57:39;3.00;;;1.50;;
76023;SDS011;64719;52.124;6.226;2023-03-14T16:00:06;4.22;;;1.10;;
76023;SDS011;64719;52.124;6.226;2023-03-14T16:02:37;6.85;;;1.20;;
76023;SDS011;64719;52.124;6.226;2023-03-14T16:05:08;3.92;;;1.08;;
76023;SDS011;64719;52.124;6.226;2023-03-14T16:07:35;8.35;;;1.30;;
76023;SDS011;64719;52.124;6.226;2023-03-14T16:10:02;6.85;;;1.23;;
76023;SDS011;64719;52.124;6.226;2023-03-14T16:12:30;4.60;;;1.40;;
76023;SDS011;64719;52.124;6.226;2023-03-14T16:14:56;7.35;;;1.30;;
76023;SDS011;64719;52.124;6.226;2023-03-14T16:17:23;4.90;;;0.90;;
76023;SDS011;64719;52.124;6.226;2023-03-14T16:19:50;7.15;;;1.23;;
76023;SDS011;64719;52.124;6.226;2023-03-14T16:22:18;5.70;;;1.05;;
76023;SDS011;64719;52.124;6.226;2023-03-14T16:24:44;3.30;;;1.00;;
76023;SDS011;64719;52.124;6.226;2023-03-14T16:27:11;5.72;;;1.60;;
76023;SDS011;64719;52.124;6.226;2023-03-14T16:29:38;5.78;;;1.05;;
76023;SDS011;64719;52.124;6.226;2023-03-14T16:32:05;3.78;;;1.10;;
76023;SDS011;64719;52.124;6.226;2023-03-14T16:34:31;2.90;;;1.10;;
76023;SDS011;64719;52.124;6.226;2023-03-14T16:36:58;5.60;;;1.38;;
76023;SDS011;64719;52.124;6.226;2023-03-14T16:39:26;3.65;;;1.10;;
76023;SDS011;64719;52.124;6.226;2023-03-14T16:41:56;5.10;;;1.10;;
76023;SDS011;64719;52.124;6.226;2023-03-14T16:44:22;5.30;;;1.08;;
76023;SDS011;64719;52.124;6.226;2023-03-14T16:46:49;4.03;;;1.23;;
76023;SDS011;64719;52.124;6.226;2023-03-14T16:49:16;4.95;;;1.10;;
76023;SDS011;64719;52.124;6.226;2023-03-14T16:51:42;3.15;;;1.02;;
76023;SDS011;64719;52.124;6.226;2023-03-14T16:54:09;5.78;;;1.35;;
76023;SDS011;64719;52.124;6.226;2023-03-14T16:56:36;5.60;;;1.13;;
76023;SDS011;64719;52.124;6.226;2023-03-14T16:59:03;5.38;;;1.10;;
76023;SDS011;64719;52.124;6.226;2023-03-14T17:01:30;7.05;;;2.10;;
76023;SDS011;64719;52.124;6.226;2023-03-14T17:03:56;5.63;;;0.93;;
76023;SDS011;64719;52.124;6.226;2023-03-14T17:06:24;3.88;;;0.80;;
76023;SDS011;64719;52.124;6.226;2023-03-14T17:13:47;5.32;;;0.95;;
76023;SDS011;64719;52.124;6.226;2023-03-14T17:16:13;2.97;;;1.08;;
76023;SDS011;64719;52.124;6.226;2023-03-14T17:18:40;6.93;;;1.40;;
76023;SDS011;64719;52.124;6.226;2023-03-14T17:21:06;7.53;;;1.17;;
76023;SDS011;64719;52.124;6.226;2023-03-14T17:23:33;7.50;;;1.30;;
76023;SDS011;64719;52.124;6.226;2023-03-14T17:26:00;4.22;;;1.00;;
76023;SDS011;64719;52.124;6.226;2023-03-14T17:28:27;6.32;;;1.52;;
76023;SDS011;64719;52.124;6.226;2023-03-14T17:31:02;3.03;;;1.00;;
76023;SDS011;64719;52.124;6.226;2023-03-14T17:33:30;7.72;;;1.20;;
76023;SDS011;64719;52.124;6.226;2023-03-14T17:35:57;5.55;;;1.08;;
76023;SDS011;64719;52.124;6.226;2023-03-14T17:38:23;5.38;;;1.10;;
76023;SDS011;64719;52.124;6.226;2023-03-14T17:40:51;5.18;;;1.40;;
76023;SDS011;64719;52.124;6.226;2023-03-14T17:43:17;4.43;;;1.02;;
76023;SDS011;64719;52.124;6.226;2023-03-14T17:45:44;6.75;;;1.52;;
76023;SDS011;64719;52.124;6.226;2023-03-14T17:48:12;6.63;;;1.98;;
76023;SDS011;64719;52.124;6.226;2023-03-14T17:50:39;6.75;;;1.60;;
76023;SDS011;64719;52.124;6.226;2023-03-14T17:53:05;5.85;;;1.25;;
76023;SDS011;64719;52.124;6.226;2023-03-14T17:55:32;5.75;;;1.30;;
76023;SDS011;64719;52.124;6.226;2023-03-14T17:57:58;5.53;;;1.23;;
76023;SDS011;64719;52.124;6.226;2023-03-14T18:00:26;9.20;;;2.38;;
76023;SDS011;64719;52.124;6.226;2023-03-14T18:02:53;5.40;;;2.10;;
76023;SDS011;64719;52.124;6.226;2023-03-14T18:05:21;7.75;;;2.22;;
76023;SDS011;64719;52.124;6.226;2023-03-14T18:07:47;6.95;;;2.13;;
76023;SDS011;64719;52.124;6.226;2023-03-14T18:10:14;6.93;;;1.70;;
76023;SDS011;64719;52.124;6.226;2023-03-14T18:12:41;9.90;;;1.98;;
76023;SDS011;64719;52.124;6.226;2023-03-14T18:15:08;9.35;;;2.40;;
76023;SDS011;64719;52.124;6.226;2023-03-14T18:17:37;9.10;;;2.97;;
76023;SDS011;64719;52.124;6.226;2023-03-14T18:20:04;7.78;;;2.60;;
76023;SDS011;64719;52.124;6.226;2023-03-14T18:22:34;10.57;;;2.40;;
76023;SDS011;64719;52.124;6.226;2023-03-14T18:25:01;8.98;;;2.45;;
76023;SDS011;64719;52.124;6.226;2023-03-14T18:27:29;8.10;;;3.15;;
76023;SDS011;64719;52.124;6.226;2023-03-14T18:29:55;5.15;;;1.98;;
76023;SDS011;64719;52.124;6.226;2023-03-14T18:32:22;5.47;;;1.95;;
76023;SDS011;64719;52.124;6.226;2023-03-14T18:34:48;6.72;;;2.20;;
76023;SDS011;64719;52.124;6.226;2023-03-14T18:37:15;6.70;;;2.13;;
76023;SDS011;64719;52.124;6.226;2023-03-14T18:39:43;7.35;;;2.15;;
76023;SDS011;64719;52.124;6.226;2023-03-14T18:42:10;4.22;;;2.00;;
76023;SDS011;64719;52.124;6.226;2023-03-14T18:44:36;3.63;;;1.60;;
76023;SDS011;64719;52.124;6.226;2023-03-14T18:47:03;5.68;;;1.73;;
76023;SDS011;64719;52.124;6.226;2023-03-14T18:49:29;4.80;;;1.60;;
76023;SDS011;64719;52.124;6.226;2023-03-14T18:51:58;4.93;;;1.55;;
76023;SDS011;64719;52.124;6.226;2023-03-14T18:54:24;8.10;;;1.67;;
76023;SDS011;64719;52.124;6.226;2023-03-14T18:56:52;6.00;;;1.77;;
76023;SDS011;64719;52.124;6.226;2023-03-14T18:59:19;11.38;;;2.92;;
76023;SDS011;64719;52.124;6.226;2023-03-14T19:01:46;6.28;;;1.60;;
76023;SDS011;64719;52.124;6.226;2023-03-14T19:04:12;8.20;;;1.98;;
76023;SDS011;64719;52.124;6.226;2023-03-14T19:06:39;5.47;;;1.70;;
76023;SDS011;64719;52.124;6.226;2023-03-14T19:09:06;6.30;;;1.75;;
76023;SDS011;64719;52.124;6.226;2023-03-14T19:11:33;4.60;;;2.15;;
76023;SDS011;64719;52.124;6.226;2023-03-14T19:14:01;6.00;;;1.70;;
76023;SDS011;64719;52.124;6.226;2023-03-14T19:16:27;7.20;;;1.65;;
76023;SDS011;64719;52.124;6.226;2023-03-14T19:18:54;6.30;;;1.48;;
76023;SDS011;64719;52.124;6.226;2023-03-14T19:21:26;4.95;;;1.40;;
76023;SDS011;64719;52.124;6.226;2023-03-14T19:23:53;5.93;;;1.55;;
76023;SDS011;64719;52.124;6.226;2023-03-14T19:26:20;12.05;;;1.92;;
76023;SDS011;64719;52.124;6.226;2023-03-14T19:28:48;5.90;;;1.30;;
76023;SDS011;64719;52.124;6.226;2023-03-14T19:31:18;9.25;;;1.20;;
76023;SDS011;64719;52.124;6.226;2023-03-14T19:33:45;7.28;;;1.55;;
76023;SDS011;64719;52.124;6.226;2023-03-14T19:36:17;4.63;;;1.05;;
76023;SDS011;64719;52.124;6.226;2023-03-14T19:41:12;6.18;;;1.40;;
76023;SDS011;64719;52.124;6.226;2023-03-14T19:43:39;6.82;;;1.48;;
76023;SDS011;64719;52.124;6.226;2023-03-14T19:46:05;3.47;;;1.65;;
76023;SDS011;64719;52.124;6.226;2023-03-14T19:48:33;10.18;;;1.98;;
76023;SDS011;64719;52.124;6.226;2023-03-14T19:51:01;7.43;;;1.60;;
76023;SDS011;64719;52.124;6.226;2023-03-14T19:53:28;9.30;;;1.52;;
76023;SDS011;64719;52.124;6.226;2023-03-14T19:55:55;8.32;;;1.45;;
76023;SDS011;64719;52.124;6.226;2023-03-14T19:58:22;6.47;;;1.23;;
76023;SDS011;64719;52.124;6.226;2023-03-14T20:00:49;7.55;;;1.40;;
76023;SDS011;64719;52.124;6.226;2023-03-14T20:03:15;7.90;;;1.60;;
76023;SDS011;64719;52.124;6.226;2023-03-14T20:05:43;5.85;;;1.27;;
76023;SDS011;64719;52.124;6.226;2023-03-14T20:08:10;5.95;;;1.27;;
76023;SDS011;64719;52.124;6.226;2023-03-14T20:10:36;7.05;;;1.60;;
76023;SDS011;64719;52.124;6.226;2023-03-14T20:13:03;6.25;;;1.63;;
76023;SDS011;64719;52.124;6.226;2023-03-14T20:15:29;6.85;;;2.20;;
76023;SDS011;64719;52.124;6.226;2023-03-14T20:17:56;12.10;;;2.45;;
76023;SDS011;64719;52.124;6.226;2023-03-14T20:20:22;8.48;;;2.80;;
76023;SDS011;64719;52.124;6.226;2023-03-14T20:22:52;11.30;;;3.60;;
76023;SDS011;64719;52.124;6.226;2023-03-14T20:25:19;8.00;;;3.20;;
76023;SDS011;64719;52.124;6.226;2023-03-14T20:27:46;12.23;;;2.97;;
76023;SDS011;64719;52.124;6.226;2023-03-14T20:30:16;8.80;;;2.67;;
76023;SDS011;64719;52.124;6.226;2023-03-14T20:32:45;6.97;;;2.13;;
76023;SDS011;64719;52.124;6.226;2023-03-14T20:35:13;7.93;;;2.40;;
76023;SDS011;64719;52.124;6.226;2023-03-14T20:37:47;11.88;;;3.20;;
76023;SDS011;64719;52.124;6.226;2023-03-14T20:40:16;10.25;;;4.20;;
76023;SDS011;64719;52.124;6.226;2023-03-14T20:42:43;9.52;;;3.58;;
76023;SDS011;64719;52.124;6.226;2023-03-14T20:45:09;9.88;;;2.60;;
76023;SDS011;64719;52.124;6.226;2023-03-14T20:47:36;10.63;;;2.50;;
76023;SDS011;64719;52.124;6.226;2023-03-14T20:50:03;5.13;;;1.85;;
76023;SDS011;64719;52.124;6.226;2023-03-14T20:52:30;11.13;;;2.20;;
76023;SDS011;64719;52.124;6.226;2023-03-14T20:54:57;6.32;;;1.20;;
76023;SDS011;64719;52.124;6.226;2023-03-14T20:57:25;7.25;;;2.50;;
76023;SDS011;64719;52.124;6.226;2023-03-14T20:59:52;6.15;;;1.88;;
76023;SDS011;64719;52.124;6.226;2023-03-14T21:02:18;6.38;;;1.80;;
76023;SDS011;64719;52.124;6.226;2023-03-14T21:04:45;7.00;;;1.65;;
76023;SDS011;64719;52.124;6.226;2023-03-14T21:07:12;5.75;;;1.90;;
76023;SDS011;64719;52.124;6.226;2023-03-14T21:09:38;3.88;;;1.85;;
76023;SDS011;64719;52.124;6.226;2023-03-14T21:12:05;9.52;;;2.20;;
76023;SDS011;64719;52.124;6.226;2023-03-14T21:14:33;9.75;;;2.00;;
76023;SDS011;64719;52.124;6.226;2023-03-14T21:16:59;5.22;;;1.80;;
76023;SDS011;64719;52.124;6.226;2023-03-14T21:19:26;5.85;;;1.70;;
76023;SDS011;64719;52.124;6.226;2023-03-14T21:21:58;2.40;;;1.23;;
76023;SDS011;64719;52.124;6.226;2023-03-14T21:24:26;5.13;;;1.52;;
76023;SDS011;64719;52.124;6.226;2023-03-14T21:26:53;7.47;;;1.77;;
76023;SDS011;64719;52.124;6.226;2023-03-14T21:29:20;6.28;;;2.22;;
76023;SDS011;64719;52.124;6.226;2023-03-14T21:31:48;8.60;;;1.73;;
76023;SDS011;64719;52.124;6.226;2023-03-14T21:34:15;4.97;;;1.38;;
76023;SDS011;64719;52.124;6.226;2023-03-14T21:36:45;4.28;;;2.17;;
76023;SDS011;64719;52.124;6.226;2023-03-14T21:39:11;5.32;;;1.35;;
76023;SDS011;64719;52.124;6.226;2023-03-14T21:41:38;4.82;;;1.40;;
76023;SDS011;64719;52.124;6.226;2023-03-14T21:44:05;5.38;;;1.73;;
76023;SDS011;64719;52.124;6.226;2023-03-14T21:46:31;5.40;;;1.48;;
76023;SDS011;64719;52.124;6.226;2023-03-14T21:51:28;5.32;;;1.95;;
76023;SDS011;64719;52.124;6.226;2023-03-14T21:53:55;5.43;;;1.00;;
76023;SDS011;64719;52.124;6.226;2023-03-14T21:56:21;3.65;;;1.42;;
76023;SDS011;64719;52.124;6.226;2023-03-14T21:58:51;3.70;;;1.17;;
76023;SDS011;64719;52.124;6.226;2023-03-14T22:01:20;3.28;;;1.10;;
76023;SDS011;64719;52.124;6.226;2023-03-14T22:03:47;3.92;;;1.30;;
76023;SDS011;64719;52.124;6.226;2023-03-14T22:06:15;7.25;;;1.67;;
76023;SDS011;64719;52.124;6.226;2023-03-14T22:08:41;2.80;;;0.98;;
76023;SDS011;64719;52.124;6.226;2023-03-14T22:11:08;9.15;;;1.60;;
76023;SDS011;64719;52.124;6.226;2023-03-14T22:13:34;4.80;;;1.77;;
76023;SDS011;64719;52.124;6.226;2023-03-14T22:16:03;5.40;;;1.67;;
76023;SDS011;64719;52.124;6.226;2023-03-14T22:18:29;9.38;;;1.58;;
76023;SDS011;64719;52.124;6.226;2023-03-14T22:20:56;5.40;;;1.42;;
76023;SDS011;64719;52.124;6.226;2023-03-14T22:23:24;6.40;;;1.85;;
76023;SDS011;64719;52.124;6.226;2023-03-14T22:25:51;7.75;;;1.60;;
76023;SDS011;64719;52.124;6.226;2023-03-14T22:28:17;8.25;;;2.03;;
76023;SDS011;64719;52.124;6.226;2023-03-14T22:30:44;7.32;;;1.90;;
76023;SDS011;64719;52.124;6.226;2023-03-14T22:33:12;5.63;;;1.70;;
76023;SDS011;64719;52.124;6.226;2023-03-14T22:35:39;8.15;;;1.65;;
76023;SDS011;64719;52.124;6.226;2023-03-14T22:38:05;8.85;;;1.63;;
76023;SDS011;64719;52.124;6.226;2023-03-14T22:40:33;3.70;;;1.38;;
76023;SDS011;64719;52.124;6.226;2023-03-14T22:43:02;7.57;;;2.10;;
76023;SDS011;64719;52.124;6.226;2023-03-14T22:45:29;6.20;;;1.90;;
76023;SDS011;64719;52.124;6.226;2023-03-14T22:47:56;5.32;;;1.50;;
76023;SDS011;64719;52.124;6.226;2023-03-14T22:50:22;8.23;;;2.10;;
76023;SDS011;64719;52.124;6.226;2023-03-14T22:52:49;6.72;;;1.88;;
76023;SDS011;64719;52.124;6.226;2023-03-14T22:55:15;7.45;;;2.67;;
76023;SDS011;64719;52.124;6.226;2023-03-14T22:57:43;6.90;;;1.90;;
76023;SDS011;64719;52.124;6.226;2023-03-14T23:00:10;5.22;;;2.08;;
76023;SDS011;64719;52.124;6.226;2023-03-14T23:02:40;6.72;;;1.85;;
76023;SDS011;64719;52.124;6.226;2023-03-14T23:05:07;4.88;;;1.70;;
76023;SDS011;64719;52.124;6.226;2023-03-14T23:07:35;6.35;;;1.80;;
76023;SDS011;64719;52.124;6.226;2023-03-14T23:10:01;6.80;;;1.70;;
76023;SDS011;64719;52.124;6.226;2023-03-14T23:12:28;3.33;;;1.55;;
76023;SDS011;64719;52.124;6.226;2023-03-14T23:14:56;6.18;;;2.10;;
76023;SDS011;64719;52.124;6.226;2023-03-14T23:17:23;6.18;;;1.58;;
76023;SDS011;64719;52.124;6.226;2023-03-14T23:19:49;4.65;;;1.73;;
76023;SDS011;64719;52.124;6.226;2023-03-14T23:22:17;7.78;;;1.95;;
76023;SDS011;64719;52.124;6.226;2023-03-14T23:24:44;4.10;;;2.13;;
76023;SDS011;64719;52.124;6.226;2023-03-14T23:27:14;5.60;;;1.75;;
76023;SDS011;64719;52.124;6.226;2023-03-14T23:29:40;6.10;;;1.95;;
76023;SDS011;64719;52.124;6.226;2023-03-14T23:32:09;5.10;;;2.05;;
76023;SDS011;64719;52.124;6.226;2023-03-14T23:34:35;6.93;;;2.20;;
76023;SDS011;64719;52.124;6.226;2023-03-14T23:37:02;4.03;;;2.00;;
76023;SDS011;64719;52.124;6.226;2023-03-14T23:39:29;6.97;;;2.45;;
76023;SDS011;64719;52.124;6.226;2023-03-14T23:41:55;6.88;;;2.28;;
76023;SDS011;64719;52.124;6.226;2023-03-14T23:44:22;3.47;;;1.98;;
76023;SDS011;64719;52.124;6.226;2023-03-14T23:46:50;6.32;;;2.33;;
76023;SDS011;64719;52.124;6.226;2023-03-14T23:49:18;4.57;;;2.10;;
76023;SDS011;64719;52.124;6.226;2023-03-14T23:51:45;4.47;;;2.05;;
76023;SDS011;64719;52.124;6.226;2023-03-14T23:54:11;7.70;;;1.98;;
76023;SDS011;64719;52.124;6.226;2023-03-14T23:56:38;4.45;;;2.15;;
76023;SDS011;64719;52.124;6.226;2023-03-14T23:59:05;5.47;;;2.33;;
